Time;durP1;ratioP1;P1;durP2;ratioP2;P2;SDS_P1;SDS_P2;PMS_P1;PMS_P2;Temp;Humidity;BMP_temperature;BMP_pressure;BME280_temperature;BME280_humidity;BME280_pressure;Samples;Min_cycle;Max_cycle;Signal;HPM_P1;HPM_P2
2023/06/14 00:02:01;;;;;;;24.37;22.87;;;;;;;;;;5077159;28;20444;-79
2023/06/14 00:04:28;;;;;;;24.73;22.93;;;;;;;;;;5077417;28;20446;-78
2023/06/14 00:06:57;;;;;;;24.03;22.50;;;;;;;;;;5058418;28;20446;-79
2023/06/14 00:09:24;;;;;;;24.07;22.63;;;;;;;;;;5077120;28;20424;-78
2023/06/14 00:11:52;;;;;;;23.70;22.40;;;;;;;;;;5077113;28;20461;-79
2023/06/14 00:14:19;;;;;;;24.60;22.80;;;;;;;;;;5076030;28;20457;-78
2023/06/14 00:16:47;;;;;;;23.77;22.27;;;;;;;;;;5076233;28;20463;-76
2023/06/14 00:19:15;;;;;;;24.47;22.97;;;;;;;;;;5076992;28;20457;-77
2023/06/14 00:21:43;;;;;;;24.30;22.83;;;;;;;;;;5076167;28;20460;-77
2023/06/14 00:24:10;;;;;;;23.80;22.50;;;;;;;;;;5076586;28;20466;-77
2023/06/14 00:26:37;;;;;;;23.50;22.20;;;;;;;;;;5076219;28;20442;-77
2023/06/14 00:29:05;;;;;;;25.07;23.23;;;;;;;;;;5076624;28;20506;-78
2023/06/14 00:31:32;;;;;;;23.57;21.80;;;;;;;;;;5075852;28;20497;-77
2023/06/14 00:33:59;;;;;;;23.70;22.40;;;;;;;;;;5076675;28;20434;-78
2023/06/14 00:36:26;;;;;;;23.67;22.33;;;;;;;;;;5076484;28;20456;-78
2023/06/14 00:38:53;;;;;;;23.63;22.13;;;;;;;;;;5076576;28;21006;-77
2023/06/14 00:41:20;;;;;;;23.57;22.27;;;;;;;;;;5075992;28;20512;-78
2023/06/14 00:43:47;;;;;;;23.40;21.90;;;;;;;;;;5075862;28;20465;-77
2023/06/14 00:46:16;;;;;;;22.50;21.20;;;;;;;;;;5076682;28;20516;-77
2023/06/14 00:48:43;;;;;;;23.97;22.53;;;;;;;;;;5076859;28;20501;-78
2023/06/14 00:51:10;;;;;;;23.17;21.80;;;;;;;;;;5076231;28;20469;-77
2023/06/14 00:53:39;;;;;;;23.13;21.83;;;;;;;;;;5075689;28;20497;-77
2023/06/14 00:56:06;;;;;;;23.47;21.97;;;;;;;;;;5076048;28;20489;-76
2023/06/14 00:58:34;;;;;;;23.63;22.27;;;;;;;;;;5076019;28;20540;-77
2023/06/14 01:01:02;;;;;;;23.50;22.10;;;;;;;;;;5075887;28;20477;-78
2023/06/14 01:03:32;;;;;;;23.50;22.20;;;;;;;;;;5075359;28;20520;-77
2023/06/14 01:06:03;;;;;;;24.10;21.97;;;;;;;;;;5075307;28;20434;-77
2023/06/14 01:08:33;;;;;;;23.73;22.13;;;;;;;;;;5076333;28;20431;-77
2023/06/14 01:11:06;;;;;;;23.90;22.27;;;;;;;;;;5076667;28;20847;-78
2023/06/14 01:13:34;;;;;;;23.27;21.80;;;;;;;;;;5076124;28;20500;-78
2023/06/14 01:16:01;;;;;;;23.53;22.23;;;;;;;;;;5075934;28;20453;-78
2023/06/14 01:18:32;;;;;;;22.93;21.63;;;;;;;;;;5077935;28;20489;-78
2023/06/14 01:20:59;;;;;;;22.77;21.57;;;;;;;;;;5086187;28;20541;-78
2023/06/14 01:23:32;;;;;;;23.57;22.17;;;;;;;;;;5085030;28;20453;-78
2023/06/14 01:25:59;;;;;;;23.67;22.17;;;;;;;;;;5084643;28;20519;-78
2023/06/14 01:28:31;;;;;;;23.43;22.10;;;;;;;;;;5076513;28;20459;-78
2023/06/14 01:31:03;;;;;;;24.07;22.67;;;;;;;;;;5076856;28;20474;-78
2023/06/14 01:33:30;;;;;;;22.93;21.53;;;;;;;;;;5076965;28;20545;-77
2023/06/14 01:35:57;;;;;;;23.30;21.90;;;;;;;;;;5075838;28;20440;-78
2023/06/14 01:38:26;;;;;;;23.50;22.10;;;;;;;;;;5082059;28;20463;-77
2023/06/14 01:40:55;;;;;;;23.77;21.90;;;;;;;;;;5082238;28;20448;-78
2023/06/14 01:43:22;;;;;;;23.30;21.87;;;;;;;;;;5077742;28;20437;-76
2023/06/14 01:45:50;;;;;;;22.80;21.50;;;;;;;;;;5081922;28;20459;-79
2023/06/14 01:48:17;;;;;;;22.67;21.47;;;;;;;;;;5087854;28;20409;-79
2023/06/14 01:50:44;;;;;;;23.90;22.20;;;;;;;;;;5088383;28;20448;-79
2023/06/14 01:53:11;;;;;;;23.37;21.87;;;;;;;;;;5086993;28;20967;-79
2023/06/14 01:55:43;;;;;;;24.33;22.93;;;;;;;;;;5085369;28;20500;-78
2023/06/14 01:58:11;;;;;;;25.00;23.20;;;;;;;;;;5087843;28;20508;-78
2023/06/14 02:00:38;;;;;;;23.43;22.03;;;;;;;;;;5085088;28;20456;-79
2023/06/14 02:03:05;;;;;;;23.27;21.87;;;;;;;;;;5083441;28;20415;-78
2023/06/14 02:05:32;;;;;;;22.93;21.63;;;;;;;;;;5081064;28;20562;-79
2023/06/14 02:07:59;;;;;;;22.63;21.37;;;;;;;;;;5075093;28;20458;-78
2023/06/14 02:10:26;;;;;;;22.10;20.90;;;;;;;;;;5074721;28;20991;-79
2023/06/14 02:12:53;;;;;;;23.37;22.03;;;;;;;;;;5074596;28;20479;-76
2023/06/14 02:15:21;;;;;;;22.90;21.70;;;;;;;;;;5074811;28;20423;-77
2023/06/14 02:17:49;;;;;;;23.50;22.10;;;;;;;;;;5073526;28;20468;-78
2023/06/14 02:20:16;;;;;;;23.30;21.97;;;;;;;;;;5074142;28;20439;-78
2023/06/14 02:22:43;;;;;;;22.57;21.30;;;;;;;;;;5073981;28;20427;-77
2023/06/14 02:25:10;;;;;;;23.70;21.67;;;;;;;;;;5074778;28;20479;-77
2023/06/14 02:27:38;;;;;;;22.53;21.20;;;;;;;;;;5075461;28;20440;-77
2023/06/14 02:30:05;;;;;;;24.33;22.83;;;;;;;;;;5076315;28;20470;-77
2023/06/14 02:32:35;;;;;;;23.67;22.27;;;;;;;;;;5078347;28;20453;-77
2023/06/14 02:35:02;;;;;;;23.67;22.30;;;;;;;;;;5076534;28;20454;-77
2023/06/14 02:37:29;;;;;;;22.67;21.43;;;;;;;;;;5074959;28;20478;-77
2023/06/14 02:39:57;;;;;;;23.23;21.93;;;;;;;;;;5074316;28;20564;-77
2023/06/14 02:42:24;;;;;;;23.27;21.97;;;;;;;;;;5077185;28;20464;-77
2023/06/14 02:44:51;;;;;;;24.47;22.83;;;;;;;;;;5077121;28;20443;-77
2023/06/14 02:47:18;;;;;;;23.10;21.70;;;;;;;;;;5077505;28;20531;-77
2023/06/14 02:49:47;;;;;;;23.63;22.33;;;;;;;;;;5075284;28;20451;-77
2023/06/14 02:52:14;;;;;;;22.90;21.50;;;;;;;;;;5073474;28;20458;-76
2023/06/14 02:54:41;;;;;;;23.47;22.23;;;;;;;;;;5072942;28;20453;-76
2023/06/14 02:57:08;;;;;;;23.50;21.97;;;;;;;;;;5072671;28;20975;-77
2023/06/14 02:59:36;;;;;;;22.70;21.30;;;;;;;;;;5073730;28;20948;-76
2023/06/14 03:02:03;;;;;;;24.50;21.80;;;;;;;;;;5073890;28;20443;-77
2023/06/14 03:04:36;;;;;;;23.60;22.23;;;;;;;;;;5073332;28;20800;-76
2023/06/14 03:07:09;;;;;;;23.30;21.90;;;;;;;;;;5072567;28;20428;-77
2023/06/14 03:09:36;;;;;;;22.77;21.37;;;;;;;;;;5074291;28;20448;-79
2023/06/14 03:12:03;;;;;;;23.40;21.93;;;;;;;;;;5073693;28;20459;-79
2023/06/14 03:14:30;;;;;;;23.07;21.77;;;;;;;;;;5073744;28;20812;-77
2023/06/14 03:16:58;;;;;;;23.40;22.00;;;;;;;;;;5080962;28;20434;-79
2023/06/14 03:19:26;;;;;;;22.63;21.40;;;;;;;;;;5073591;28;20493;-77
2023/06/14 03:21:56;;;;;;;23.13;21.63;;;;;;;;;;5075873;28;20434;-79
2023/06/14 03:24:27;;;;;;;23.13;21.83;;;;;;;;;;5076436;28;20541;-77
2023/06/14 03:26:54;;;;;;;23.30;22.00;;;;;;;;;;5073427;28;20437;-77
2023/06/14 03:29:21;;;;;;;23.30;22.00;;;;;;;;;;5072866;28;20459;-77
2023/06/14 03:31:59;;;;;;;22.60;21.40;;;;;;;;;;5073442;28;20961;-77
2023/06/14 03:34:26;;;;;;;23.93;22.53;;;;;;;;;;5073800;28;20825;-78
2023/06/14 03:36:53;;;;;;;23.90;22.50;;;;;;;;;;5073861;28;20784;-78
2023/06/14 03:39:20;;;;;;;23.20;21.83;;;;;;;;;;5073580;28;20505;-79
2023/06/14 03:41:48;;;;;;;23.40;22.20;;;;;;;;;;5073379;28;20401;-77
2023/06/14 03:44:16;;;;;;;22.97;21.70;;;;;;;;;;5073652;28;20453;-76
2023/06/14 03:46:43;;;;;;;22.70;21.30;;;;;;;;;;5073337;28;20449;-78
2023/06/14 03:49:10;;;;;;;22.80;21.50;;;;;;;;;;5073452;28;20503;-76
2023/06/14 03:51:37;;;;;;;22.60;21.40;;;;;;;;;;5075409;28;20481;-77
2023/06/14 03:54:04;;;;;;;23.47;21.97;;;;;;;;;;5073453;28;20445;-77
2023/06/14 03:56:31;;;;;;;22.50;21.10;;;;;;;;;;5072802;28;20452;-77
2023/06/14 03:58:59;;;;;;;23.10;21.70;;;;;;;;;;5072922;28;20455;-77
2023/06/14 04:01:29;;;;;;;22.30;21.00;;;;;;;;;;5072745;28;20551;-78
2023/06/14 04:03:56;;;;;;;22.20;21.00;;;;;;;;;;5073007;28;20927;-77
2023/06/14 04:06:24;;;;;;;23.43;22.00;;;;;;;;;;5072590;28;20449;-76
2023/06/14 04:08:51;;;;;;;22.70;21.43;;;;;;;;;;5073319;28;20508;-76
2023/06/14 04:11:19;;;;;;;22.70;21.43;;;;;;;;;;5072324;28;20901;-77
2023/06/14 04:13:47;;;;;;;22.37;21.07;;;;;;;;;;5073045;28;20845;-76
2023/06/14 04:16:15;;;;;;;23.43;21.67;;;;;;;;;;5072121;28;20453;-77
2023/06/14 04:18:42;;;;;;;22.73;21.33;;;;;;;;;;5075053;28;20534;-76
2023/06/14 04:21:09;;;;;;;22.57;21.30;;;;;;;;;;5075532;28;20814;-77
2023/06/14 04:23:37;;;;;;;23.10;21.57;;;;;;;;;;5076715;28;20444;-76
2023/06/14 04:26:04;;;;;;;23.07;21.67;;;;;;;;;;5076566;28;20452;-77
2023/06/14 04:28:31;;;;;;;26.40;24.43;;;;;;;;;;5076716;28;20851;-77
2023/06/14 04:31:01;;;;;;;21.90;20.60;;;;;;;;;;5075737;28;20460;-76
2023/06/14 04:33:29;;;;;;;23.53;22.10;;;;;;;;;;5075942;28;20977;-77
2023/06/14 04:35:56;;;;;;;22.83;21.40;;;;;;;;;;5077601;28;20462;-78
2023/06/14 04:38:25;;;;;;;22.40;21.13;;;;;;;;;;5079554;28;20535;-77
2023/06/14 04:40:52;;;;;;;23.33;22.03;;;;;;;;;;5079996;28;20487;-78
2023/06/14 04:43:27;;;;;;;22.80;21.50;;;;;;;;;;5075825;28;20515;-77
2023/06/14 04:45:56;;;;;;;22.43;21.23;;;;;;;;;;5076025;28;20814;-77
2023/06/14 04:48:23;;;;;;;23.10;21.80;;;;;;;;;;5076254;28;20449;-76
2023/06/14 04:50:52;;;;;;;23.10;21.80;;;;;;;;;;5075917;28;20498;-77
2023/06/14 04:53:22;;;;;;;24.23;22.47;;;;;;;;;;5075157;28;20471;-77
2023/06/14 04:55:50;;;;;;;23.63;22.17;;;;;;;;;;5076107;28;20424;-76
2023/06/14 04:58:17;;;;;;;24.00;22.40;;;;;;;;;;5077317;28;20463;-77
2023/06/14 05:00:44;;;;;;;22.83;21.10;;;;;;;;;;5077971;28;20546;-77
2023/06/14 05:03:14;;;;;;;24.50;22.60;;;;;;;;;;5073639;28;20533;-78
2023/06/14 05:05:42;;;;;;;23.27;21.87;;;;;;;;;;5077939;28;20411;-77
2023/06/14 05:08:10;;;;;;;22.17;20.83;;;;;;;;;;5077373;28;20441;-78
2023/06/14 05:10:38;;;;;;;22.90;21.50;;;;;;;;;;5080228;28;20485;-76
2023/06/14 05:13:05;;;;;;;22.73;21.23;;;;;;;;;;5077737;28;20468;-76
2023/06/14 05:15:32;;;;;;;22.60;21.30;;;;;;;;;;5076767;28;20424;-77
2023/06/14 05:17:59;;;;;;;24.97;23.43;;;;;;;;;;5080580;28;20431;-77
2023/06/14 05:20:26;;;;;;;22.40;21.10;;;;;;;;;;5082827;28;20503;-77
2023/06/14 05:22:54;;;;;;;23.47;21.97;;;;;;;;;;5075338;28;20443;-77
2023/06/14 05:25:22;;;;;;;23.67;22.27;;;;;;;;;;5076037;28;20860;-81
2023/06/14 05:27:49;;;;;;;23.30;21.90;;;;;;;;;;5075237;28;20436;-75
2023/06/14 05:30:17;;;;;;;22.43;21.23;;;;;;;;;;5074903;28;20472;-82
2023/06/14 05:32:44;;;;;;;23.10;21.67;;;;;;;;;;5076431;28;20416;-82
2023/06/14 05:35:12;;;;;;;23.17;21.70;;;;;;;;;;5076829;28;20535;-81
2023/06/14 05:37:39;;;;;;;22.97;21.60;;;;;;;;;;5076126;28;20541;-82
2023/06/14 05:40:08;;;;;;;22.57;21.27;;;;;;;;;;5075974;28;20492;-76
2023/06/14 05:42:37;;;;;;;22.70;21.20;;;;;;;;;;5074524;28;20532;-75
2023/06/14 05:45:04;;;;;;;22.67;21.27;;;;;;;;;;5074154;28;20495;-75
2023/06/14 05:47:31;;;;;;;22.93;21.63;;;;;;;;;;5074170;28;20451;-75
2023/06/14 05:50:05;;;;;;;22.60;21.30;;;;;;;;;;5076200;28;20439;-84
2023/06/14 05:52:32;;;;;;;23.47;22.07;;;;;;;;;;5076631;28;20818;-84
2023/06/14 05:54:59;;;;;;;22.83;21.33;;;;;;;;;;5084452;28;20551;-84
2023/06/14 05:57:26;;;;;;;23.30;21.80;;;;;;;;;;5076600;28;20423;-79
2023/06/14 05:59:55;;;;;;;23.17;21.57;;;;;;;;;;5077280;28;20513;-86
2023/06/14 06:02:22;;;;;;;22.00;20.63;;;;;;;;;;5076346;28;20454;-83
2023/06/14 06:04:49;;;;;;;22.33;21.03;;;;;;;;;;5075684;28;20442;-85
2023/06/14 06:07:16;;;;;;;22.43;21.23;;;;;;;;;;5074778;28;20412;-77
2023/06/14 06:09:43;;;;;;;21.83;20.63;;;;;;;;;;5074641;28;20543;-75
2023/06/14 06:12:10;;;;;;;22.90;21.60;;;;;;;;;;5074557;28;20445;-81
2023/06/14 06:14:37;;;;;;;23.23;21.67;;;;;;;;;;5073430;28;20976;-77
2023/06/14 06:17:06;;;;;;;23.03;21.73;;;;;;;;;;5074218;28;20449;-75
2023/06/14 06:19:33;;;;;;;22.57;21.23;;;;;;;;;;5073862;28;20486;-75
2023/06/14 06:22:00;;;;;;;22.90;21.70;;;;;;;;;;5079373;28;20446;-79
2023/06/14 06:24:27;;;;;;;21.60;20.50;;;;;;;;;;5075774;28;20510;-77
2023/06/14 06:26:54;;;;;;;21.97;20.77;;;;;;;;;;5081216;28;20480;-83
2023/06/14 06:29:21;;;;;;;22.33;21.13;;;;;;;;;;5090059;28;20875;-84
2023/06/14 06:31:48;;;;;;;21.80;20.70;;;;;;;;;;5079232;28;20452;-85
2023/06/14 06:34:17;;;;;;;22.03;20.83;;;;;;;;;;5080422;28;20777;-85
2023/06/14 06:36:44;;;;;;;22.80;21.50;;;;;;;;;;5077401;28;20870;-87
2023/06/14 06:39:11;;;;;;;22.90;21.57;;;;;;;;;;5075369;28;21016;-79
2023/06/14 06:41:39;;;;;;;22.43;21.23;;;;;;;;;;5074601;28;20505;-79
2023/06/14 06:44:06;;;;;;;22.00;20.80;;;;;;;;;;5074200;28;20461;-77
2023/06/14 06:46:33;;;;;;;21.90;20.70;;;;;;;;;;5072659;28;20473;-77
2023/06/14 06:49:00;;;;;;;21.60;20.40;;;;;;;;;;5073652;28;20901;-76
2023/06/14 06:51:29;;;;;;;21.50;20.40;;;;;;;;;;5073671;28;20473;-79
2023/06/14 06:53:56;;;;;;;21.50;20.20;;;;;;;;;;5075960;28;20831;-77
2023/06/14 06:56:24;;;;;;;21.07;19.97;;;;;;;;;;5093774;28;20941;-77
2023/06/14 06:58:51;;;;;;;21.23;20.00;;;;;;;;;;5094103;28;20463;-77
2023/06/14 07:01:18;;;;;;;21.90;20.60;;;;;;;;;;5093015;28;20480;-77
2023/06/14 07:03:46;;;;;;;21.70;20.60;;;;;;;;;;5094008;28;20819;-77
2023/06/14 07:06:13;;;;;;;21.30;20.20;;;;;;;;;;5094423;28;20412;-77
2023/06/14 07:08:41;;;;;;;21.43;20.33;;;;;;;;;;5093569;28;20411;-77
2023/06/14 07:11:08;;;;;;;22.23;21.03;;;;;;;;;;5093236;28;20455;-77
2023/06/14 07:13:35;;;;;;;22.13;21.03;;;;;;;;;;5094639;28;20506;-77
2023/06/14 07:16:02;;;;;;;21.07;20.07;;;;;;;;;;5093785;28;20986;-78
2023/06/14 07:18:30;;;;;;;22.03;20.93;;;;;;;;;;5094163;28;20810;-77
2023/06/14 07:20:57;;;;;;;21.93;20.83;;;;;;;;;;5093627;28;20476;-77
2023/06/14 07:23:25;;;;;;;22.37;20.93;;;;;;;;;;5094448;28;20449;-77
2023/06/14 07:25:56;;;;;;;22.70;21.47;;;;;;;;;;5093263;28;20496;-78
2023/06/14 07:28:23;;;;;;;22.70;21.40;;;;;;;;;;5094476;28;20444;-77
2023/06/14 07:30:50;;;;;;;21.73;20.63;;;;;;;;;;5093102;28;20988;-77
2023/06/14 07:33:17;;;;;;;21.57;20.37;;;;;;;;;;5094026;28;20419;-77
2023/06/14 07:35:44;;;;;;;21.90;20.70;;;;;;;;;;5094305;28;20429;-78
2023/06/14 07:38:11;;;;;;;22.17;20.77;;;;;;;;;;5095060;28;20445;-77
2023/06/14 07:40:38;;;;;;;21.90;20.70;;;;;;;;;;5094215;28;20463;-80
2023/06/14 07:43:07;;;;;;;23.27;21.87;;;;;;;;;;5094677;28;20444;-76
2023/06/14 07:45:34;;;;;;;21.87;20.67;;;;;;;;;;5093127;28;20498;-80
2023/06/14 07:48:01;;;;;;;22.73;21.53;;;;;;;;;;5096297;28;20459;-81
2023/06/14 07:50:28;;;;;;;23.57;22.20;;;;;;;;;;5080160;28;20466;-82
2023/06/14 07:52:55;;;;;;;22.10;20.90;;;;;;;;;;5075707;28;20540;-78
2023/06/14 07:55:22;;;;;;;21.73;20.53;;;;;;;;;;5079560;28;20500;-79
2023/06/14 07:57:49;;;;;;;22.40;21.10;;;;;;;;;;5079223;28;20450;-81
2023/06/14 08:00:19;;;;;;;22.60;21.20;;;;;;;;;;5082533;28;20481;-83
2023/06/14 08:02:46;;;;;;;23.27;21.87;;;;;;;;;;5083288;28;20517;-82
2023/06/14 08:05:14;;;;;;;22.17;20.97;;;;;;;;;;5079232;28;20996;-83
2023/06/14 08:07:41;;;;;;;22.73;21.33;;;;;;;;;;5079523;28;20415;-83
2023/06/14 08:10:09;;;;;;;22.33;20.93;;;;;;;;;;5079024;28;20465;-82
2023/06/14 08:12:36;;;;;;;23.03;21.53;;;;;;;;;;5077666;28;20440;-79
2023/06/14 08:15:03;;;;;;;22.87;21.67;;;;;;;;;;5078614;28;20478;-82
2023/06/14 08:17:31;;;;;;;23.30;22.00;;;;;;;;;;5076728;28;20453;-80
2023/06/14 08:19:59;;;;;;;22.53;21.33;;;;;;;;;;5077114;28;20468;-75
2023/06/14 08:22:27;;;;;;;22.53;21.20;;;;;;;;;;5075804;28;20493;-81
2023/06/14 08:24:54;;;;;;;22.97;21.63;;;;;;;;;;5075811;28;20840;-76
2023/06/14 08:27:22;;;;;;;22.70;21.20;;;;;;;;;;5076627;28;20424;-85
2023/06/14 08:29:49;;;;;;;23.40;22.03;;;;;;;;;;5076714;28;20437;-79
2023/06/14 08:32:16;;;;;;;22.63;21.33;;;;;;;;;;5076185;28;20519;-75
2023/06/14 08:34:44;;;;;;;23.47;22.10;;;;;;;;;;5075521;28;20936;-76
2023/06/14 08:37:12;;;;;;;22.40;21.10;;;;;;;;;;5076205;28;20586;-78
2023/06/14 08:39:39;;;;;;;22.67;21.27;;;;;;;;;;5075334;28;20456;-76
2023/06/14 08:42:07;;;;;;;22.90;21.60;;;;;;;;;;5055944;28;20504;-77
2023/06/14 08:44:34;;;;;;;21.60;20.30;;;;;;;;;;5055326;28;20425;-75
2023/06/14 08:47:03;;;;;;;22.60;21.20;;;;;;;;;;5054417;28;20497;-75
2023/06/14 08:49:31;;;;;;;22.57;21.27;;;;;;;;;;5055413;28;20457;-75
2023/06/14 08:52:00;;;;;;;23.10;21.73;;;;;;;;;;5055196;28;20788;-77
2023/06/14 08:54:29;;;;;;;23.73;22.20;;;;;;;;;;5055702;28;20428;-82
2023/06/14 08:56:57;;;;;;;22.70;21.37;;;;;;;;;;5054925;28;20500;-76
2023/06/14 08:59:25;;;;;;;22.53;21.33;;;;;;;;;;5055564;28;20834;-76
2023/06/14 09:01:54;;;;;;;22.73;21.40;;;;;;;;;;5054161;28;20442;-77
2023/06/14 09:04:21;;;;;;;23.00;21.70;;;;;;;;;;5054419;28;20443;-76
2023/06/14 09:06:52;;;;;;;23.57;21.90;;;;;;;;;;5053454;28;20555;-76
2023/06/14 09:09:21;;;;;;;23.40;22.17;;;;;;;;;;5055760;28;20461;-76
2023/06/14 09:11:48;;;;;;;22.73;21.50;;;;;;;;;;5055209;28;20446;-76
2023/06/14 09:14:15;;;;;;;23.50;22.20;;;;;;;;;;5054873;28;20465;-76
2023/06/14 09:16:42;;;;;;;22.77;21.57;;;;;;;;;;5053918;28;20933;-75
2023/06/14 09:19:09;;;;;;;23.23;21.73;;;;;;;;;;5057385;28;20438;-87
2023/06/14 09:21:37;;;;;;;23.80;22.30;;;;;;;;;;5057804;28;20492;-82
2023/06/14 09:24:05;;;;;;;22.93;21.43;;;;;;;;;;5056469;28;20492;-81
2023/06/14 09:26:33;;;;;;;22.80;21.47;;;;;;;;;;5055617;28;20481;-82
2023/06/14 09:29:01;;;;;;;22.60;21.30;;;;;;;;;;5057326;28;20786;-84
2023/06/14 09:31:31;;;;;;;23.30;21.80;;;;;;;;;;5056272;28;20861;-82
2023/06/14 09:33:58;;;;;;;23.50;22.20;;;;;;;;;;5056503;28;20447;-83
2023/06/14 09:36:26;;;;;;;24.03;22.47;;;;;;;;;;5053941;28;20481;-77
2023/06/14 09:38:54;;;;;;;24.47;22.77;;;;;;;;;;5054536;28;20438;-76
2023/06/14 09:41:21;;;;;;;23.57;22.07;;;;;;;;;;5055942;28;20494;-74
2023/06/14 09:43:50;;;;;;;24.27;22.80;;;;;;;;;;5054257;28;20984;-76
2023/06/14 09:46:17;;;;;;;22.97;21.67;;;;;;;;;;5054348;28;20542;-78
2023/06/14 09:48:44;;;;;;;22.70;21.30;;;;;;;;;;5054107;28;20409;-74
2023/06/14 09:51:15;;;;;;;23.93;22.53;;;;;;;;;;5054397;28;20459;-75
2023/06/14 09:53:42;;;;;;;22.80;21.03;;;;;;;;;;5054376;28;20425;-75
2023/06/14 09:56:11;;;;;;;23.93;22.43;;;;;;;;;;5053970;28;20429;-76
2023/06/14 09:58:38;;;;;;;23.13;21.77;;;;;;;;;;5054609;28;20466;-76
2023/06/14 10:01:13;;;;;;;24.60;23.30;;;;;;;;;;5053955;28;20515;-75
2023/06/14 10:03:41;;;;;;;23.20;21.90;;;;;;;;;;5062152;28;20482;-75
2023/06/14 10:06:10;;;;;;;22.77;21.47;;;;;;;;;;5073748;28;20446;-75
2023/06/14 10:08:37;;;;;;;23.27;21.83;;;;;;;;;;5073693;28;21040;-80
2023/06/14 10:11:04;;;;;;;22.60;21.40;;;;;;;;;;5074145;28;20778;-75
2023/06/14 10:13:33;;;;;;;23.57;22.00;;;;;;;;;;5073617;28;20420;-74
2023/06/14 10:16:03;;;;;;;23.80;22.30;;;;;;;;;;5072554;28;20449;-75
2023/06/14 10:18:37;;;;;;;23.83;22.40;;;;;;;;;;5074731;28;20460;-79
2023/06/14 10:21:08;;;;;;;24.30;22.90;;;;;;;;;;5074699;28;20493;-75
2023/06/14 10:23:37;;;;;;;24.50;23.00;;;;;;;;;;5074132;28;20466;-75
2023/06/14 10:26:04;;;;;;;23.27;21.97;;;;;;;;;;5073778;28;20449;-81
2023/06/14 10:28:32;;;;;;;23.00;21.70;;;;;;;;;;5074631;28;20504;-81
2023/06/14 10:31:05;;;;;;;23.97;22.67;;;;;;;;;;5074081;28;20490;-83
2023/06/14 10:33:32;;;;;;;23.40;22.10;;;;;;;;;;5081080;28;20949;-76
2023/06/14 10:36:27;;;;;;;23.50;22.20;;;;;;;;;;5093395;28;20400;-77
2023/06/14 10:39:01;;;;;;;23.60;22.30;;;;;;;;;;5093782;28;20400;-76
2023/06/14 10:41:28;;;;;;;22.83;21.53;;;;;;;;;;5092722;28;20545;-76
2023/06/14 10:44:10;;;;;;;23.50;22.00;;;;;;;;;;5093405;28;20433;-76
2023/06/14 10:46:37;;;;;;;22.70;21.30;;;;;;;;;;5092470;28;20875;-76
2023/06/14 10:49:05;;;;;;;22.80;21.40;;;;;;;;;;5093121;28;20449;-76
2023/06/14 10:51:46;;;;;;;22.80;21.47;;;;;;;;;;5096244;28;20499;-76
2023/06/14 10:54:13;;;;;;;24.00;22.70;;;;;;;;;;5094734;28;20460;-85
2023/06/14 10:56:47;;;;;;;24.10;22.60;;;;;;;;;;5100791;28;20458;-83
2023/06/14 10:59:16;;;;;;;23.50;22.00;;;;;;;;;;5099272;28;20475;-84
2023/06/14 11:01:55;;;;;;;23.93;22.20;;;;;;;;;;5096388;28;20889;-83
2023/06/14 11:04:22;;;;;;;24.13;22.83;;;;;;;;;;5099662;28;20502;-85
2023/06/14 11:06:53;;;;;;;23.83;22.40;;;;;;;;;;5096614;28;21049;-84
2023/06/14 11:09:25;;;;;;;23.30;21.90;;;;;;;;;;5096469;28;20433;-80
2023/06/14 11:11:53;;;;;;;23.30;22.00;;;;;;;;;;5092766;28;20538;-80
2023/06/14 11:14:20;;;;;;;22.97;21.63;;;;;;;;;;5075248;28;21143;-79
2023/06/14 11:16:49;;;;;;;23.47;22.07;;;;;;;;;;5091392;28;20472;-80
2023/06/14 11:19:17;;;;;;;24.60;23.10;;;;;;;;;;5094847;28;20533;-79
2023/06/14 11:21:44;;;;;;;23.90;22.60;;;;;;;;;;5095058;28;20527;-79
2023/06/14 11:24:13;;;;;;;24.20;22.70;;;;;;;;;;5074312;28;20531;-79
2023/06/14 11:26:40;;;;;;;23.90;22.50;;;;;;;;;;5071814;28;20442;-79
2023/06/14 11:29:07;;;;;;;23.33;22.00;;;;;;;;;;5071964;28;20405;-80
2023/06/14 11:31:34;;;;;;;23.00;21.57;;;;;;;;;;5072471;28;20468;-79
2023/06/14 11:34:07;;;;;;;22.20;21.00;;;;;;;;;;5076160;28;20827;-77
2023/06/14 11:36:35;;;;;;;23.77;22.37;;;;;;;;;;5073861;28;20517;-78
2023/06/14 11:39:03;;;;;;;23.30;22.00;;;;;;;;;;5030876;28;1241693;-88
2023/06/14 11:41:35;;;;;;;23.73;22.43;;;;;;;;;;5075374;28;20779;-78
2023/06/14 11:44:03;;;;;;;24.20;22.60;;;;;;;;;;5075673;28;20467;-80
2023/06/14 11:46:30;;;;;;;23.70;22.00;;;;;;;;;;5076151;28;20437;-85
2023/06/14 11:48:57;;;;;;;23.17;21.87;;;;;;;;;;5074672;28;20408;-82
2023/06/14 11:51:24;;;;;;;23.63;22.13;;;;;;;;;;5068220;28;20461;-83
2023/06/14 11:53:52;;;;;;;23.00;21.70;;;;;;;;;;5060455;28;20845;-83
2023/06/14 11:56:19;;;;;;;23.47;22.13;;;;;;;;;;5065975;28;21022;-80
2023/06/14 11:58:47;;;;;;;23.30;21.93;;;;;;;;;;5065133;28;20935;-77
2023/06/14 12:01:16;;;;;;;24.53;23.13;;;;;;;;;;5061630;28;20479;-78
2023/06/14 12:03:49;;;;;;;23.40;22.10;;;;;;;;;;5059949;28;20467;-83
2023/06/14 12:06:17;;;;;;;25.30;23.60;;;;;;;;;;5057384;28;20451;-83
2023/06/14 12:08:46;;;;;;;23.63;22.07;;;;;;;;;;5057539;28;20463;-80
2023/06/14 12:11:15;;;;;;;23.03;21.73;;;;;;;;;;5075559;28;20470;-82
2023/06/14 12:13:42;;;;;;;23.17;21.87;;;;;;;;;;5076591;28;20461;-81
2023/06/14 12:16:10;;;;;;;24.40;23.10;;;;;;;;;;5094400;28;20849;-83
2023/06/14 12:18:39;;;;;;;23.50;22.20;;;;;;;;;;5095296;28;21156;-83
2023/06/14 12:21:06;;;;;;;24.20;22.50;;;;;;;;;;5082534;28;20476;-82
2023/06/14 12:23:47;;;;;;;23.40;22.00;;;;;;;;;;5074981;28;20470;-80
2023/06/14 12:26:15;;;;;;;23.80;22.43;;;;;;;;;;5074395;28;20469;-81
2023/06/14 12:28:42;;;;;;;23.13;21.83;;;;;;;;;;5078544;28;20862;-87
2023/06/14 12:31:11;;;;;;;23.77;22.37;;;;;;;;;;5074673;28;20470;-86
2023/06/14 12:33:38;;;;;;;24.67;22.80;;;;;;;;;;5075183;28;20413;-86
2023/06/14 12:36:06;;;;;;;22.90;21.60;;;;;;;;;;5074486;28;20453;-79
2023/06/14 12:38:33;;;;;;;23.50;22.10;;;;;;;;;;5075043;28;21065;-91
2023/06/14 12:41:01;;;;;;;23.30;21.90;;;;;;;;;;5080863;28;20824;-90
2023/06/14 12:43:28;;;;;;;23.50;21.90;;;;;;;;;;5079772;28;20449;-88
2023/06/14 12:45:55;;;;;;;23.40;22.00;;;;;;;;;;5093019;28;20461;-89
2023/06/14 12:48:24;;;;;;;23.90;22.50;;;;;;;;;;5086448;28;20450;-87
2023/06/14 12:50:51;;;;;;;22.90;21.60;;;;;;;;;;5079974;28;20440;-87
2023/06/14 12:53:18;;;;;;;22.33;21.03;;;;;;;;;;5080128;28;20438;-87
2023/06/14 12:55:45;;;;;;;22.87;21.47;;;;;;;;;;5079089;28;20420;-89
2023/06/14 12:58:13;;;;;;;23.30;21.90;;;;;;;;;;5079827;28;20428;-90
2023/06/14 13:00:40;;;;;;;22.93;21.63;;;;;;;;;;5078894;28;20478;-88
2023/06/14 13:03:08;;;;;;;22.63;21.33;;;;;;;;;;5078897;28;20438;-88
2023/06/14 13:05:37;;;;;;;23.50;22.10;;;;;;;;;;5079463;28;20457;-89
2023/06/14 13:08:04;;;;;;;23.13;21.83;;;;;;;;;;5089770;28;20447;-88
2023/06/14 13:10:31;;;;;;;22.63;21.43;;;;;;;;;;5084475;28;20545;-83
2023/06/14 13:12:59;;;;;;;23.60;22.20;;;;;;;;;;5078745;28;20477;-83
2023/06/14 13:15:27;;;;;;;23.60;22.30;;;;;;;;;;5080612;28;20416;-81
2023/06/14 13:17:54;;;;;;;22.73;21.43;;;;;;;;;;5076541;28;20424;-82
2023/06/14 13:20:21;;;;;;;23.70;22.30;;;;;;;;;;5078805;28;20478;-81
2023/06/14 13:22:49;;;;;;;24.00;22.60;;;;;;;;;;5078254;28;20502;-82
2023/06/14 13:25:16;;;;;;;23.70;22.33;;;;;;;;;;5076224;28;20507;-80
2023/06/14 13:27:43;;;;;;;23.93;22.53;;;;;;;;;;5079084;28;20425;-80
2023/06/14 13:30:11;;;;;;;23.27;21.87;;;;;;;;;;5078059;28;20452;-81
2023/06/14 13:32:38;;;;;;;23.70;22.40;;;;;;;;;;5077878;28;20437;-81
2023/06/14 13:35:05;;;;;;;24.53;23.07;;;;;;;;;;5077534;28;20985;-88
2023/06/14 13:37:32;;;;;;;24.40;23.00;;;;;;;;;;5076819;28;20456;-81
2023/06/14 13:40:01;;;;;;;24.30;22.60;;;;;;;;;;5076290;28;20473;-81
2023/06/14 13:42:29;;;;;;;23.10;21.80;;;;;;;;;;5076545;28;20559;-82
2023/06/14 13:44:56;;;;;;;23.77;22.27;;;;;;;;;;5077790;28;20458;-80
2023/06/14 13:47:23;;;;;;;23.30;22.00;;;;;;;;;;5077655;28;20458;-82
2023/06/14 13:49:50;;;;;;;23.73;22.43;;;;;;;;;;5076233;28;20482;-82
2023/06/14 13:52:17;;;;;;;23.97;22.67;;;;;;;;;;5077839;28;20457;-81
2023/06/14 13:54:44;;;;;;;23.63;22.23;;;;;;;;;;5080180;28;20437;-81
2023/06/14 13:57:13;;;;;;;23.90;22.60;;;;;;;;;;5077327;28;20450;-81
2023/06/14 13:59:40;;;;;;;23.33;22.03;;;;;;;;;;5078568;28;20458;-82
2023/06/14 14:02:07;;;;;;;23.60;22.30;;;;;;;;;;5081488;28;20508;-81
2023/06/14 14:04:35;;;;;;;22.83;21.50;;;;;;;;;;5078671;28;20828;-83
2023/06/14 14:07:03;;;;;;;22.77;21.40;;;;;;;;;;5077081;28;20518;-80
2023/06/14 14:09:30;;;;;;;22.60;21.40;;;;;;;;;;5077143;28;20549;-80
2023/06/14 14:11:57;;;;;;;22.90;21.60;;;;;;;;;;5077439;28;20458;-81
2023/06/14 14:14:25;;;;;;;23.33;22.03;;;;;;;;;;5076304;28;20524;-76
2023/06/14 14:16:53;;;;;;;22.20;20.90;;;;;;;;;;5074572;28;20950;-77
2023/06/14 14:19:20;;;;;;;22.87;21.47;;;;;;;;;;5075794;28;21137;-79
2023/06/14 14:21:47;;;;;;;23.00;21.70;;;;;;;;;;5078470;28;20531;-77